aviador You're here:

KJMS Decoded Metar

JAMESTOWN in ND, USA
Report Time2017-11-18 13:56:00
UTC Time2017-11-18 14:11:06
Flight Rules vfr VFR
Wind300° at 13 kt
W.Decomp.*RWY 31: 12.4 kt HW 4 kt LCW
RWY 22: 4.0 kt HW 12.4 kt RCW
W.Rank300° ranks 8
Current wind is above 300° avg. (11.8)
Visibility9999 m
Phenomena:N/A
Clouds:N/A
Expected CloudBase > 1,200 ft AGL from Temp-Dew spread
CeilingNone
Temp-9°C (ISA -21)
Dew Point-12°C (79% RH)
AAT-16.9°C
QNH1015 hPa
Density Alt-1,152 ft
Elevation1,493 ft
Report Wrong Elevation
Raw Report
KJMS 181356Z AUTO 30013KT 10SM CLR M09/M12 A2998 RMK AO2 SLP179
T10941117=

Extra information for KJMS:More info

Metar Taf Metar & Taf Last 4 Metars F.Rules Stats Wind Profile Meteogram Temp Stats Airport Information Weather charts Add Link Nearby VenuesMetar ALERT Operation Metar Decoded Social comments

AIRNAV info for KJMS